Airfield :
LOGIN :

Register | Disclaimer

   EN    FR    IT 

 










Legend :    VFR   Marginal VFR   IFR   Intensive IFR   Very Intensive IFR
Visi :
Ceiling :
>= 8 km
>= 3000ft
5 to 8 km
1000 to 3000 ft
1500m to 5 km
500 to 1000 ft
800 to 1500m
200 to 500 ft
< 800m
< 200 ft
Symbols :   Thunderstorms  Fog  Heavy snow  Heavy precipitations  Wind > 20 kt
SIGMETs :     Misc.  Thunderstorms  Icing  Turbulence  Mountain Waves  Volcanic Ashes






- Airport Elevation : 266 ft
- IATA code : NCL


EGNT - Newcastle

CURRENT METAR :
  • 051950Z 27005KT CAVOK 01/M01 Q1044

EXPIRED METARs :
  • 051920Z 27004KT CAVOK 02/M00 Q1044
  • 051850Z 31003KT CAVOK 02/00 Q1044
  • 051820Z VRB01KT CAVOK 02/M00 Q1044
  • 051750Z VRB01KT CAVOK 03/M00 Q1044
  • 051720Z 32003KT CAVOK 03/00 Q1044

TAF TAF EGNT
Valid from the 05 at 18:00 until the 06 at 18:00 UTC


051656Z 0518/0618 27005KT CAVOK
PROB30
TEMPO 0601/0609 6000
ATIS : +44 191 214 3400



MET'MAP, your aeronautical weather chart ! - Copyright ORBIFLY December 2007 - Disclaimer

ORBIFLY MET'MAP TEAM :

Programming & Development : Alexandra Zaïnal
Original concept : Baudouin d'Aumeries
Technical & hardware support : Manuel Goepfert
Assistance : Marc-Olivier Méhu




SOURCES & CREDITS :

   NOAA